sensor_id;sensor_type;location;lat;lon;timestamp;P1;durP1;ratioP1;P2;durP2;ratioP2
60060;SDS011;45933;51.336;12.612;2023-08-07T00:01:25;2.60;;;1.60;;
60060;SDS011;45933;51.336;12.612;2023-08-07T00:03:50;2.70;;;1.40;;
60060;SDS011;45933;51.336;12.612;2023-08-07T00:06:15;1.38;;;1.25;;
60060;SDS011;45933;51.336;12.612;2023-08-07T00:08:40;2.67;;;1.60;;
60060;SDS011;45933;51.336;12.612;2023-08-07T00:11:06;1.20;;;1.10;;
60060;SDS011;45933;51.336;12.612;2023-08-07T00:13:32;3.10;;;1.42;;
60060;SDS011;45933;51.336;12.612;2023-08-07T00:15:58;1.75;;;1.10;;
60060;SDS011;45933;51.336;12.612;2023-08-07T00:18:23;2.17;;;1.38;;
60060;SDS011;45933;51.336;12.612;2023-08-07T00:20:48;1.60;;;1.50;;
60060;SDS011;45933;51.336;12.612;2023-08-07T00:23:13;2.13;;;1.30;;
60060;SDS011;45933;51.336;12.612;2023-08-07T00:25:39;1.30;;;1.20;;
60060;SDS011;45933;51.336;12.612;2023-08-07T00:28:04;1.67;;;1.45;;
60060;SDS011;45933;51.336;12.612;2023-08-07T00:30:29;1.67;;;1.50;;
60060;SDS011;45933;51.336;12.612;2023-08-07T00:32:55;3.10;;;1.48;;
60060;SDS011;45933;51.336;12.612;2023-08-07T00:35:20;1.70;;;1.20;;
60060;SDS011;45933;51.336;12.612;2023-08-07T00:37:45;1.35;;;1.25;;
60060;SDS011;45933;51.336;12.612;2023-08-07T00:40:10;1.38;;;1.27;;
60060;SDS011;45933;51.336;12.612;2023-08-07T00:42:36;1.65;;;1.55;;
60060;SDS011;45933;51.336;12.612;2023-08-07T00:45:01;2.03;;;1.35;;
60060;SDS011;45933;51.336;12.612;2023-08-07T00:47:26;1.30;;;1.20;;
60060;SDS011;45933;51.336;12.612;2023-08-07T00:49:52;2.15;;;1.30;;
60060;SDS011;45933;51.336;12.612;2023-08-07T00:52:17;1.77;;;1.45;;
60060;SDS011;45933;51.336;12.612;2023-08-07T00:54:42;3.53;;;1.20;;
60060;SDS011;45933;51.336;12.612;2023-08-07T00:57:11;2.03;;;1.60;;
60060;SDS011;45933;51.336;12.612;2023-08-07T00:59:40;3.08;;;1.65;;
60060;SDS011;45933;51.336;12.612;2023-08-07T01:02:06;2.15;;;1.30;;
60060;SDS011;45933;51.336;12.612;2023-08-07T01:04:32;1.60;;;1.40;;
60060;SDS011;45933;51.336;12.612;2023-08-07T01:06:57;2.22;;;1.50;;
60060;SDS011;45933;51.336;12.612;2023-08-07T01:09:23;1.80;;;1.05;;
60060;SDS011;45933;51.336;12.612;2023-08-07T01:11:50;1.75;;;1.33;;
60060;SDS011;45933;51.336;12.612;2023-08-07T01:17:06;1.35;;;1.23;;
60060;SDS011;45933;51.336;12.612;2023-08-07T01:19:35;1.80;;;1.27;;
60060;SDS011;45933;51.336;12.612;2023-08-07T01:22:10;1.70;;;1.27;;
60060;SDS011;45933;51.336;12.612;2023-08-07T01:24:37;2.58;;;1.42;;
60060;SDS011;45933;51.336;12.612;2023-08-07T01:32:16;1.98;;;1.70;;
60060;SDS011;45933;51.336;12.612;2023-08-07T01:34:48;2.25;;;1.92;;
60060;SDS011;45933;51.336;12.612;2023-08-07T01:37:15;2.05;;;1.85;;
60060;SDS011;45933;51.336;12.612;2023-08-07T01:39:42;2.08;;;1.95;;
60060;SDS011;45933;51.336;12.612;2023-08-07T01:42:08;2.75;;;2.10;;
60060;SDS011;45933;51.336;12.612;2023-08-07T01:44:35;3.88;;;2.70;;
60060;SDS011;45933;51.336;12.612;2023-08-07T01:47:01;6.60;;;2.90;;
60060;SDS011;45933;51.336;12.612;2023-08-07T01:49:27;2.70;;;2.50;;
60060;SDS011;45933;51.336;12.612;2023-08-07T01:51:52;3.13;;;2.53;;
60060;SDS011;45933;51.336;12.612;2023-08-07T01:54:17;2.85;;;2.30;;
60060;SDS011;45933;51.336;12.612;2023-08-07T01:56:43;3.70;;;2.40;;
60060;SDS011;45933;51.336;12.612;2023-08-07T01:59:08;5.30;;;2.72;;
60060;SDS011;45933;51.336;12.612;2023-08-07T02:01:33;2.65;;;2.25;;
60060;SDS011;45933;51.336;12.612;2023-08-07T02:03:58;2.92;;;2.25;;
60060;SDS011;45933;51.336;12.612;2023-08-07T02:06:24;3.42;;;2.42;;
60060;SDS011;45933;51.336;12.612;2023-08-07T02:08:49;5.43;;;3.10;;
60060;SDS011;45933;51.336;12.612;2023-08-07T02:11:14;4.05;;;2.88;;
60060;SDS011;45933;51.336;12.612;2023-08-07T02:13:40;3.22;;;2.92;;
60060;SDS011;45933;51.336;12.612;2023-08-07T02:16:05;4.65;;;3.03;;
60060;SDS011;45933;51.336;12.612;2023-08-07T02:18:30;4.82;;;3.35;;
60060;SDS011;45933;51.336;12.612;2023-08-07T02:20:55;3.72;;;3.28;;
60060;SDS011;45933;51.336;12.612;2023-08-07T02:23:21;3.88;;;3.13;;
60060;SDS011;45933;51.336;12.612;2023-08-07T02:25:47;3.75;;;3.08;;
60060;SDS011;45933;51.336;12.612;2023-08-07T02:28:13;4.18;;;3.10;;
60060;SDS011;45933;51.336;12.612;2023-08-07T02:30:38;5.50;;;3.40;;
60060;SDS011;45933;51.336;12.612;2023-08-07T02:33:04;7.07;;;3.80;;
60060;SDS011;45933;51.336;12.612;2023-08-07T02:35:29;5.25;;;3.50;;
60060;SDS011;45933;51.336;12.612;2023-08-07T02:37:54;4.05;;;3.38;;
60060;SDS011;45933;51.336;12.612;2023-08-07T02:40:20;4.68;;;2.90;;
60060;SDS011;45933;51.336;12.612;2023-08-07T02:42:45;3.25;;;2.63;;
60060;SDS011;45933;51.336;12.612;2023-08-07T02:45:10;4.22;;;2.75;;
60060;SDS011;45933;51.336;12.612;2023-08-07T02:47:35;4.88;;;2.83;;
60060;SDS011;45933;51.336;12.612;2023-08-07T02:50:01;10.45;;;3.08;;
60060;SDS011;45933;51.336;12.612;2023-08-07T02:52:26;3.63;;;2.80;;
60060;SDS011;45933;51.336;12.612;2023-08-07T02:54:51;3.67;;;2.78;;
60060;SDS011;45933;51.336;12.612;2023-08-07T02:57:17;4.50;;;2.88;;
60060;SDS011;45933;51.336;12.612;2023-08-07T02:59:42;4.05;;;3.55;;
60060;SDS011;45933;51.336;12.612;2023-08-07T03:02:07;3.45;;;2.70;;
60060;SDS011;45933;51.336;12.612;2023-08-07T03:04:33;3.08;;;2.78;;
60060;SDS011;45933;51.336;12.612;2023-08-07T03:06:58;5.57;;;2.80;;
60060;SDS011;45933;51.336;12.612;2023-08-07T03:09:24;5.57;;;3.20;;
60060;SDS011;45933;51.336;12.612;2023-08-07T03:11:50;3.83;;;2.63;;
60060;SDS011;45933;51.336;12.612;2023-08-07T03:14:15;4.32;;;3.65;;
60060;SDS011;45933;51.336;12.612;2023-08-07T03:16:41;3.95;;;3.22;;
60060;SDS011;45933;51.336;12.612;2023-08-07T03:19:06;4.47;;;3.13;;
60060;SDS011;45933;51.336;12.612;2023-08-07T03:21:31;3.80;;;2.97;;
60060;SDS011;45933;51.336;12.612;2023-08-07T03:23:57;4.35;;;2.85;;
60060;SDS011;45933;51.336;12.612;2023-08-07T03:26:22;4.82;;;2.65;;
60060;SDS011;45933;51.336;12.612;2023-08-07T03:28:47;3.10;;;2.80;;
60060;SDS011;45933;51.336;12.612;2023-08-07T03:31:13;3.75;;;2.63;;
60060;SDS011;45933;51.336;12.612;2023-08-07T03:33:39;2.97;;;2.60;;
60060;SDS011;45933;51.336;12.612;2023-08-07T03:36:04;4.18;;;2.63;;
60060;SDS011;45933;51.336;12.612;2023-08-07T03:38:29;3.97;;;2.60;;
60060;SDS011;45933;51.336;12.612;2023-08-07T03:40:55;6.05;;;3.10;;
60060;SDS011;45933;51.336;12.612;2023-08-07T03:43:20;4.30;;;2.40;;
60060;SDS011;45933;51.336;12.612;2023-08-07T03:45:45;7.50;;;2.22;;
60060;SDS011;45933;51.336;12.612;2023-08-07T03:48:10;2.75;;;2.33;;
60060;SDS011;45933;51.336;12.612;2023-08-07T03:50:36;3.63;;;2.17;;
60060;SDS011;45933;51.336;12.612;2023-08-07T03:53:04;3.72;;;2.30;;
60060;SDS011;45933;51.336;12.612;2023-08-07T03:55:32;2.80;;;2.05;;
60060;SDS011;45933;51.336;12.612;2023-08-07T03:57:57;3.03;;;2.28;;
60060;SDS011;45933;51.336;12.612;2023-08-07T04:00:22;4.00;;;2.65;;
60060;SDS011;45933;51.336;12.612;2023-08-07T04:02:48;4.03;;;2.45;;
60060;SDS011;45933;51.336;12.612;2023-08-07T04:05:13;3.55;;;2.15;;
60060;SDS011;45933;51.336;12.612;2023-08-07T04:07:38;4.85;;;2.00;;
60060;SDS011;45933;51.336;12.612;2023-08-07T04:10:04;4.07;;;1.90;;
60060;SDS011;45933;51.336;12.612;2023-08-07T04:12:30;4.03;;;2.20;;
60060;SDS011;45933;51.336;12.612;2023-08-07T04:14:55;2.13;;;1.95;;
60060;SDS011;45933;51.336;12.612;2023-08-07T04:17:20;2.20;;;2.00;;
60060;SDS011;45933;51.336;12.612;2023-08-07T04:19:45;2.17;;;2.00;;
60060;SDS011;45933;51.336;12.612;2023-08-07T04:22:11;2.85;;;2.10;;
60060;SDS011;45933;51.336;12.612;2023-08-07T04:24:36;2.15;;;1.95;;
60060;SDS011;45933;51.336;12.612;2023-08-07T04:27:01;2.58;;;2.22;;
60060;SDS011;45933;51.336;12.612;2023-08-07T04:29:27;2.28;;;2.08;;
60060;SDS011;45933;51.336;12.612;2023-08-07T04:31:53;2.83;;;2.00;;
60060;SDS011;45933;51.336;12.612;2023-08-07T04:34:18;5.40;;;2.20;;
60060;SDS011;45933;51.336;12.612;2023-08-07T04:36:44;2.97;;;2.33;;
60060;SDS011;45933;51.336;12.612;2023-08-07T04:39:09;2.95;;;2.03;;
60060;SDS011;45933;51.336;12.612;2023-08-07T04:41:34;1.75;;;1.65;;
60060;SDS011;45933;51.336;12.612;2023-08-07T04:43:59;1.80;;;1.63;;
60060;SDS011;45933;51.336;12.612;2023-08-07T04:46:25;2.83;;;2.03;;
60060;SDS011;45933;51.336;12.612;2023-08-07T04:48:50;2.03;;;1.75;;
60060;SDS011;45933;51.336;12.612;2023-08-07T04:51:15;2.88;;;1.88;;
60060;SDS011;45933;51.336;12.612;2023-08-07T04:53:41;3.80;;;1.67;;
60060;SDS011;45933;51.336;12.612;2023-08-07T04:56:06;2.50;;;1.50;;
60060;SDS011;45933;51.336;12.612;2023-08-07T04:58:31;2.95;;;1.42;;
60060;SDS011;45933;51.336;12.612;2023-08-07T05:00:57;1.98;;;1.63;;
60060;SDS011;45933;51.336;12.612;2023-08-07T05:03:23;2.75;;;1.30;;
60060;SDS011;45933;51.336;12.612;2023-08-07T05:05:48;2.47;;;1.40;;
60060;SDS011;45933;51.336;12.612;2023-08-07T05:08:14;3.03;;;1.48;;
60060;SDS011;45933;51.336;12.612;2023-08-07T05:10:39;4.65;;;1.58;;
60060;SDS011;45933;51.336;12.612;2023-08-07T05:13:04;1.90;;;1.55;;
60060;SDS011;45933;51.336;12.612;2023-08-07T05:15:30;2.75;;;1.35;;
60060;SDS011;45933;51.336;12.612;2023-08-07T05:17:56;3.15;;;1.40;;
60060;SDS011;45933;51.336;12.612;2023-08-07T05:20:21;4.40;;;1.20;;
60060;SDS011;45933;51.336;12.612;2023-08-07T05:22:47;1.30;;;1.20;;
60060;SDS011;45933;51.336;12.612;2023-08-07T05:25:12;1.38;;;0.98;;
60060;SDS011;45933;51.336;12.612;2023-08-07T05:27:41;2.65;;;1.10;;
60060;SDS011;45933;51.336;12.612;2023-08-07T05:30:09;1.10;;;1.00;;
60060;SDS011;45933;51.336;12.612;2023-08-07T05:32:35;1.10;;;1.00;;
60060;SDS011;45933;51.336;12.612;2023-08-07T05:35:03;3.13;;;1.02;;
60060;SDS011;45933;51.336;12.612;2023-08-07T05:37:33;2.67;;;1.17;;
60060;SDS011;45933;51.336;12.612;2023-08-07T05:39:58;1.95;;;1.25;;
60060;SDS011;45933;51.336;12.612;2023-08-07T05:42:24;2.45;;;1.33;;
60060;SDS011;45933;51.336;12.612;2023-08-07T05:44:49;3.40;;;1.10;;
60060;SDS011;45933;51.336;12.612;2023-08-07T05:47:15;0.98;;;0.98;;
60060;SDS011;45933;51.336;12.612;2023-08-07T05:49:40;1.92;;;1.30;;
60060;SDS011;45933;51.336;12.612;2023-08-07T05:52:06;1.42;;;1.17;;
60060;SDS011;45933;51.336;12.612;2023-08-07T05:54:32;2.65;;;1.35;;
60060;SDS011;45933;51.336;12.612;2023-08-07T05:56:57;3.28;;;1.30;;
60060;SDS011;45933;51.336;12.612;2023-08-07T05:59:22;2.35;;;1.10;;
60060;SDS011;45933;51.336;12.612;2023-08-07T06:01:48;1.02;;;0.93;;
60060;SDS011;45933;51.336;12.612;2023-08-07T06:04:13;1.63;;;1.10;;
60060;SDS011;45933;51.336;12.612;2023-08-07T06:06:38;1.40;;;1.20;;
60060;SDS011;45933;51.336;12.612;2023-08-07T06:09:04;1.23;;;1.13;;
60060;SDS011;45933;51.336;12.612;2023-08-07T06:11:31;1.50;;;1.10;;
60060;SDS011;45933;51.336;12.612;2023-08-07T06:13:57;2.67;;;1.20;;
60060;SDS011;45933;51.336;12.612;2023-08-07T06:16:22;1.83;;;1.42;;
60060;SDS011;45933;51.336;12.612;2023-08-07T06:18:47;2.70;;;1.25;;
60060;SDS011;45933;51.336;12.612;2023-08-07T06:21:13;1.50;;;1.10;;
60060;SDS011;45933;51.336;12.612;2023-08-07T06:23:38;1.95;;;1.20;;
60060;SDS011;45933;51.336;12.612;2023-08-07T06:26:03;1.55;;;1.13;;
60060;SDS011;45933;51.336;12.612;2023-08-07T06:28:29;3.53;;;1.23;;
60060;SDS011;45933;51.336;12.612;2023-08-07T06:31:00;2.03;;;1.20;;
60060;SDS011;45933;51.336;12.612;2023-08-07T06:33:31;1.60;;;1.02;;
60060;SDS011;45933;51.336;12.612;2023-08-07T06:35:58;2.45;;;1.23;;
60060;SDS011;45933;51.336;12.612;2023-08-07T06:38:23;1.83;;;1.48;;
60060;SDS011;45933;51.336;12.612;2023-08-07T06:40:48;3.50;;;1.50;;
60060;SDS011;45933;51.336;12.612;2023-08-07T06:43:14;2.38;;;1.42;;
60060;SDS011;45933;51.336;12.612;2023-08-07T06:45:39;1.42;;;1.33;;
60060;SDS011;45933;51.336;12.612;2023-08-07T06:48:04;1.52;;;1.40;;
60060;SDS011;45933;51.336;12.612;2023-08-07T06:50:30;2.72;;;1.17;;
60060;SDS011;45933;51.336;12.612;2023-08-07T06:52:55;2.10;;;1.50;;
60060;SDS011;45933;51.336;12.612;2023-08-07T06:55:21;5.45;;;1.20;;
60060;SDS011;45933;51.336;12.612;2023-08-07T06:57:46;1.80;;;1.20;;
60060;SDS011;45933;51.336;12.612;2023-08-07T07:00:12;2.42;;;1.50;;
60060;SDS011;45933;51.336;12.612;2023-08-07T07:02:37;1.65;;;1.10;;
60060;SDS011;45933;51.336;12.612;2023-08-07T07:05:03;2.35;;;1.17;;
60060;SDS011;45933;51.336;12.612;2023-08-07T07:07:29;1.63;;;1.20;;
60060;SDS011;45933;51.336;12.612;2023-08-07T07:09:55;2.63;;;1.23;;
60060;SDS011;45933;51.336;12.612;2023-08-07T07:12:22;1.45;;;1.30;;
60060;SDS011;45933;51.336;12.612;2023-08-07T07:14:48;2.72;;;1.42;;
60060;SDS011;45933;51.336;12.612;2023-08-07T07:17:13;1.80;;;1.30;;
60060;SDS011;45933;51.336;12.612;2023-08-07T07:19:38;3.67;;;1.40;;
60060;SDS011;45933;51.336;12.612;2023-08-07T07:22:04;2.10;;;1.27;;
60060;SDS011;45933;51.336;12.612;2023-08-07T07:24:29;3.03;;;1.10;;
60060;SDS011;45933;51.336;12.612;2023-08-07T07:26:55;2.33;;;0.98;;
60060;SDS011;45933;51.336;12.612;2023-08-07T07:29:20;2.13;;;1.00;;
60060;SDS011;45933;51.336;12.612;2023-08-07T07:34:33;3.15;;;1.30;;
60060;SDS011;45933;51.336;12.612;2023-08-07T07:36:58;1.35;;;1.00;;
60060;SDS011;45933;51.336;12.612;2023-08-07T07:39:24;4.28;;;1.13;;
60060;SDS011;45933;51.336;12.612;2023-08-07T07:41:49;1.20;;;1.10;;
60060;SDS011;45933;51.336;12.612;2023-08-07T07:44:15;1.17;;;1.08;;
60060;SDS011;45933;51.336;12.612;2023-08-07T07:46:40;1.40;;;0.95;;
60060;SDS011;45933;51.336;12.612;2023-08-07T07:49:05;2.15;;;1.25;;
60060;SDS011;45933;51.336;12.612;2023-08-07T07:51:31;2.00;;;1.10;;
60060;SDS011;45933;51.336;12.612;2023-08-07T07:53:57;1.50;;;0.90;;
60060;SDS011;45933;51.336;12.612;2023-08-07T07:56:23;2.80;;;0.90;;
60060;SDS011;45933;51.336;12.612;2023-08-07T07:58:48;1.63;;;0.90;;
60060;SDS011;45933;51.336;12.612;2023-08-07T08:01:14;3.35;;;0.90;;
60060;SDS011;45933;51.336;12.612;2023-08-07T08:03:39;1.33;;;0.98;;
60060;SDS011;45933;51.336;12.612;2023-08-07T08:06:04;2.15;;;0.95;;
60060;SDS011;45933;51.336;12.612;2023-08-07T08:08:30;0.80;;;0.80;;
60060;SDS011;45933;51.336;12.612;2023-08-07T08:10:55;1.95;;;0.70;;
60060;SDS011;45933;51.336;12.612;2023-08-07T08:13:21;2.35;;;1.00;;
60060;SDS011;45933;51.336;12.612;2023-08-07T08:15:46;1.50;;;1.05;;
60060;SDS011;45933;51.336;12.612;2023-08-07T08:18:11;1.25;;;0.90;;
60060;SDS011;45933;51.336;12.612;2023-08-07T08:20:37;0.82;;;0.80;;
60060;SDS011;45933;51.336;12.612;2023-08-07T08:23:03;3.88;;;1.08;;
60060;SDS011;45933;51.336;12.612;2023-08-07T08:25:29;1.13;;;0.98;;
60060;SDS011;45933;51.336;12.612;2023-08-07T08:27:55;0.90;;;0.85;;
60060;SDS011;45933;51.336;12.612;2023-08-07T08:30:20;1.85;;;0.98;;
60060;SDS011;45933;51.336;12.612;2023-08-07T08:32:46;1.30;;;0.80;;
60060;SDS011;45933;51.336;12.612;2023-08-07T08:35:11;1.80;;;1.00;;
60060;SDS011;45933;51.336;12.612;2023-08-07T08:37:37;3.90;;;1.00;;
60060;SDS011;45933;51.336;12.612;2023-08-07T08:40:02;1.40;;;0.90;;
60060;SDS011;45933;51.336;12.612;2023-08-07T08:42:28;1.08;;;0.70;;
60060;SDS011;45933;51.336;12.612;2023-08-07T08:44:56;1.13;;;0.95;;
60060;SDS011;45933;51.336;12.612;2023-08-07T08:47:22;1.35;;;0.80;;
60060;SDS011;45933;51.336;12.612;2023-08-07T08:49:53;1.38;;;1.00;;
60060;SDS011;45933;51.336;12.612;2023-08-07T08:52:25;1.00;;;0.88;;
60060;SDS011;45933;51.336;12.612;2023-08-07T08:54:51;3.70;;;0.90;;
60060;SDS011;45933;51.336;12.612;2023-08-07T08:57:17;0.95;;;0.90;;
60060;SDS011;45933;51.336;12.612;2023-08-07T08:59:43;4.18;;;1.10;;
60060;SDS011;45933;51.336;12.612;2023-08-07T09:02:09;2.00;;;0.90;;
60060;SDS011;45933;51.336;12.612;2023-08-07T09:04:35;1.27;;;0.70;;
60060;SDS011;45933;51.336;12.612;2023-08-07T09:07:01;1.30;;;1.10;;
60060;SDS011;45933;51.336;12.612;2023-08-07T09:09:26;1.90;;;0.88;;
60060;SDS011;45933;51.336;12.612;2023-08-07T09:11:52;1.55;;;1.10;;
60060;SDS011;45933;51.336;12.612;2023-08-07T09:14:20;1.23;;;0.85;;
60060;SDS011;45933;51.336;12.612;2023-08-07T09:16:49;0.80;;;0.80;;
60060;SDS011;45933;51.336;12.612;2023-08-07T09:19:15;2.35;;;1.58;;
60060;SDS011;45933;51.336;12.612;2023-08-07T09:21:40;1.80;;;1.00;;
60060;SDS011;45933;51.336;12.612;2023-08-07T09:24:05;2.72;;;1.13;;
60060;SDS011;45933;51.336;12.612;2023-08-07T09:26:34;2.55;;;1.00;;
60060;SDS011;45933;51.336;12.612;2023-08-07T09:28:59;2.88;;;1.10;;
60060;SDS011;45933;51.336;12.612;2023-08-07T09:31:27;2.22;;;0.90;;
60060;SDS011;45933;51.336;12.612;2023-08-07T09:34:00;2.97;;;0.90;;
60060;SDS011;45933;51.336;12.612;2023-08-07T09:36:29;1.10;;;1.00;;
60060;SDS011;45933;51.336;12.612;2023-08-07T09:38:55;1.60;;;1.20;;
60060;SDS011;45933;51.336;12.612;2023-08-07T09:41:20;1.35;;;1.00;;
60060;SDS011;45933;51.336;12.612;2023-08-07T09:43:46;0.90;;;0.80;;
60060;SDS011;45933;51.336;12.612;2023-08-07T09:46:12;0.80;;;0.80;;
60060;SDS011;45933;51.336;12.612;2023-08-07T09:48:43;1.10;;;0.80;;
60060;SDS011;45933;51.336;12.612;2023-08-07T09:51:09;1.42;;;1.00;;
60060;SDS011;45933;51.336;12.612;2023-08-07T09:53:35;1.75;;;1.20;;
60060;SDS011;45933;51.336;12.612;2023-08-07T09:56:01;1.73;;;1.17;;
60060;SDS011;45933;51.336;12.612;2023-08-07T09:58:26;1.00;;;0.80;;
60060;SDS011;45933;51.336;12.612;2023-08-07T10:00:53;1.88;;;1.00;;
60060;SDS011;45933;51.336;12.612;2023-08-07T10:03:20;5.30;;;1.52;;
60060;SDS011;45933;51.336;12.612;2023-08-07T10:05:47;2.20;;;1.10;;
60060;SDS011;45933;51.336;12.612;2023-08-07T10:08:13;1.58;;;1.00;;
60060;SDS011;45933;51.336;12.612;2023-08-07T10:10:38;2.05;;;0.95;;
60060;SDS011;45933;51.336;12.612;2023-08-07T10:13:04;2.58;;;1.08;;
60060;SDS011;45933;51.336;12.612;2023-08-07T10:15:30;1.10;;;1.00;;
60060;SDS011;45933;51.336;12.612;2023-08-07T10:17:57;0.70;;;0.70;;
60060;SDS011;45933;51.336;12.612;2023-08-07T10:20:24;1.15;;;0.70;;
60060;SDS011;45933;51.336;12.612;2023-08-07T10:22:52;1.98;;;0.57;;
60060;SDS011;45933;51.336;12.612;2023-08-07T10:25:20;1.92;;;0.85;;
60060;SDS011;45933;51.336;12.612;2023-08-07T10:27:46;1.30;;;0.98;;
60060;SDS011;45933;51.336;12.612;2023-08-07T10:30:15;0.60;;;0.60;;
60060;SDS011;45933;51.336;12.612;2023-08-07T10:32:44;1.35;;;0.63;;
60060;SDS011;45933;51.336;12.612;2023-08-07T10:35:22;0.80;;;0.50;;
60060;SDS011;45933;51.336;12.612;2023-08-07T10:38:10;0.93;;;0.50;;
60060;SDS011;45933;51.336;12.612;2023-08-07T10:43:36;1.35;;;0.40;;
60060;SDS011;45933;51.336;12.612;2023-08-07T10:46:03;1.90;;;0.50;;
60060;SDS011;45933;51.336;12.612;2023-08-07T10:48:30;0.98;;;0.50;;
60060;SDS011;45933;51.336;12.612;2023-08-07T10:51:03;1.58;;;0.70;;
60060;SDS011;45933;51.336;12.612;2023-08-07T10:56:02;0.63;;;0.63;;
60060;SDS011;45933;51.336;12.612;2023-08-07T10:58:37;0.70;;;0.57;;
60060;SDS011;45933;51.336;12.612;2023-08-07T11:04:00;1.17;;;0.50;;
60060;SDS011;45933;51.336;12.612;2023-08-07T11:06:31;1.35;;;0.55;;
60060;SDS011;45933;51.336;12.612;2023-08-07T11:08:59;0.50;;;0.50;;
60060;SDS011;45933;51.336;12.612;2023-08-07T11:11:28;0.73;;;0.50;;
60060;SDS011;45933;51.336;12.612;2023-08-07T11:13:54;1.95;;;0.60;;
60060;SDS011;45933;51.336;12.612;2023-08-07T11:16:19;1.88;;;0.70;;
60060;SDS011;45933;51.336;12.612;2023-08-07T11:18:48;1.15;;;0.52;;
60060;SDS011;45933;51.336;12.612;2023-08-07T11:21:14;0.60;;;0.60;;
60060;SDS011;45933;51.336;12.612;2023-08-07T11:23:39;0.82;;;0.80;;
60060;SDS011;45933;51.336;12.612;2023-08-07T11:26:06;0.98;;;0.65;;
60060;SDS011;45933;51.336;12.612;2023-08-07T11:28:32;1.60;;;0.80;;
60060;SDS011;45933;51.336;12.612;2023-08-07T11:30:57;1.90;;;0.90;;
60060;SDS011;45933;51.336;12.612;2023-08-07T11:33:24;1.55;;;0.90;;
60060;SDS011;45933;51.336;12.612;2023-08-07T11:35:51;2.20;;;0.93;;
60060;SDS011;45933;51.336;12.612;2023-08-07T11:38:29;8.25;;;1.23;;
60060;SDS011;45933;51.336;12.612;2023-08-07T11:40:58;1.35;;;1.10;;
60060;SDS011;45933;51.336;12.612;2023-08-07T11:43:28;3.17;;;0.90;;
60060;SDS011;45933;51.336;12.612;2023-08-07T11:45:56;1.10;;;1.00;;
60060;SDS011;45933;51.336;12.612;2023-08-07T11:48:24;1.17;;;0.75;;
60060;SDS011;45933;51.336;12.612;2023-08-07T11:50:51;3.75;;;1.10;;
60060;SDS011;45933;51.336;12.612;2023-08-07T11:53:18;1.00;;;0.70;;
60060;SDS011;45933;51.336;12.612;2023-08-07T11:56:26;3.63;;;0.80;;
60060;SDS011;45933;51.336;12.612;2023-08-07T11:58:38;1.35;;;1.00;;
60060;SDS011;45933;51.336;12.612;2023-08-07T12:01:10;0.60;;;0.60;;
60060;SDS011;45933;51.336;12.612;2023-08-07T12:03:38;2.30;;;1.02;;
60060;SDS011;45933;51.336;12.612;2023-08-07T12:06:04;1.77;;;0.60;;
60060;SDS011;45933;51.336;12.612;2023-08-07T12:08:40;1.95;;;0.88;;
60060;SDS011;45933;51.336;12.612;2023-08-07T12:11:10;1.00;;;0.80;;
60060;SDS011;45933;51.336;12.612;2023-08-07T12:13:38;2.42;;;1.02;;
60060;SDS011;45933;51.336;12.612;2023-08-07T12:16:05;0.68;;;0.68;;
60060;SDS011;45933;51.336;12.612;2023-08-07T12:18:31;1.10;;;0.85;;
60060;SDS011;45933;51.336;12.612;2023-08-07T12:21:00;0.70;;;0.60;;
60060;SDS011;45933;51.336;12.612;2023-08-07T12:23:30;0.70;;;0.70;;
60060;SDS011;45933;51.336;12.612;2023-08-07T12:25:58;1.58;;;0.63;;
60060;SDS011;45933;51.336;12.612;2023-08-07T12:28:23;1.35;;;0.63;;
60060;SDS011;45933;51.336;12.612;2023-08-07T12:30:49;1.02;;;0.50;;
60060;SDS011;45933;51.336;12.612;2023-08-07T12:33:15;1.58;;;0.52;;
60060;SDS011;45933;51.336;12.612;2023-08-07T12:35:41;0.73;;;0.50;;
60060;SDS011;45933;51.336;12.612;2023-08-07T12:38:07;1.20;;;0.60;;
60060;SDS011;45933;51.336;12.612;2023-08-07T12:40:34;0.88;;;0.80;;
60060;SDS011;45933;51.336;12.612;2023-08-07T12:43:01;0.63;;;0.55;;
60060;SDS011;45933;51.336;12.612;2023-08-07T12:45:27;1.52;;;0.60;;
60060;SDS011;45933;51.336;12.612;2023-08-07T12:47:52;1.42;;;0.70;;
60060;SDS011;45933;51.336;12.612;2023-08-07T12:50:17;0.82;;;0.70;;
60060;SDS011;45933;51.336;12.612;2023-08-07T12:52:43;1.52;;;0.85;;
60060;SDS011;45933;51.336;12.612;2023-08-07T12:55:08;1.00;;;0.65;;
60060;SDS011;45933;51.336;12.612;2023-08-07T12:57:34;1.30;;;0.77;;
60060;SDS011;45933;51.336;12.612;2023-08-07T13:00:00;2.05;;;0.80;;
60060;SDS011;45933;51.336;12.612;2023-08-07T13:02:25;1.75;;;0.70;;
60060;SDS011;45933;51.336;12.612;2023-08-07T13:04:50;4.20;;;1.05;;
60060;SDS011;45933;51.336;12.612;2023-08-07T13:07:19;1.42;;;0.93;;
60060;SDS011;45933;51.336;12.612;2023-08-07T13:09:45;1.20;;;1.10;;
60060;SDS011;45933;51.336;12.612;2023-08-07T13:12:10;1.17;;;0.77;;
60060;SDS011;45933;51.336;12.612;2023-08-07T13:14:35;1.95;;;1.10;;
60060;SDS011;45933;51.336;12.612;2023-08-07T13:17:00;1.17;;;0.85;;
60060;SDS011;45933;51.336;12.612;2023-08-07T13:19:26;0.98;;;0.80;;
60060;SDS011;45933;51.336;12.612;2023-08-07T13:21:51;4.22;;;1.02;;
60060;SDS011;45933;51.336;12.612;2023-08-07T13:24:16;2.53;;;0.60;;
60060;SDS011;45933;51.336;12.612;2023-08-07T13:26:42;1.77;;;0.80;;
60060;SDS011;45933;51.336;12.612;2023-08-07T13:29:12;1.83;;;1.00;;
60060;SDS011;45933;51.336;12.612;2023-08-07T13:31:39;1.63;;;0.60;;
60060;SDS011;45933;51.336;12.612;2023-08-07T13:34:06;3.38;;;0.95;;
60060;SDS011;45933;51.336;12.612;2023-08-07T13:36:33;3.33;;;0.70;;
60060;SDS011;45933;51.336;12.612;2023-08-07T13:39:01;1.35;;;0.90;;
60060;SDS011;45933;51.336;12.612;2023-08-07T13:41:26;2.55;;;1.00;;
60060;SDS011;45933;51.336;12.612;2023-08-07T13:43:52;1.83;;;1.00;;
60060;SDS011;45933;51.336;12.612;2023-08-07T13:46:17;1.10;;;0.80;;
60060;SDS011;45933;51.336;12.612;2023-08-07T13:48:43;3.65;;;0.90;;
60060;SDS011;45933;51.336;12.612;2023-08-07T13:51:09;2.33;;;0.82;;
60060;SDS011;45933;51.336;12.612;2023-08-07T13:53:35;0.68;;;0.57;;
60060;SDS011;45933;51.336;12.612;2023-08-07T13:56:00;0.80;;;0.50;;
60060;SDS011;45933;51.336;12.612;2023-08-07T13:58:26;1.00;;;0.60;;
60060;SDS011;45933;51.336;12.612;2023-08-07T14:00:51;0.68;;;0.52;;
60060;SDS011;45933;51.336;12.612;2023-08-07T14:03:17;5.00;;;0.98;;
60060;SDS011;45933;51.336;12.612;2023-08-07T14:05:42;4.05;;;1.00;;
60060;SDS011;45933;51.336;12.612;2023-08-07T14:08:07;1.75;;;0.77;;
60060;SDS011;45933;51.336;12.612;2023-08-07T14:10:35;1.70;;;0.75;;
60060;SDS011;45933;51.336;12.612;2023-08-07T14:13:01;2.97;;;1.13;;
60060;SDS011;45933;51.336;12.612;2023-08-07T14:15:27;2.03;;;0.77;;
60060;SDS011;45933;51.336;12.612;2023-08-07T14:17:52;0.55;;;0.52;;
60060;SDS011;45933;51.336;12.612;2023-08-07T14:20:18;1.60;;;0.90;;
60060;SDS011;45933;51.336;12.612;2023-08-07T14:22:43;1.17;;;0.70;;
60060;SDS011;45933;51.336;12.612;2023-08-07T14:25:09;2.08;;;0.80;;
60060;SDS011;45933;51.336;12.612;2023-08-07T14:27:34;0.90;;;0.60;;
60060;SDS011;45933;51.336;12.612;2023-08-07T14:30:01;1.15;;;0.93;;
60060;SDS011;45933;51.336;12.612;2023-08-07T14:32:27;1.15;;;0.63;;
60060;SDS011;45933;51.336;12.612;2023-08-07T14:34:53;2.78;;;0.90;;
60060;SDS011;45933;51.336;12.612;2023-08-07T14:37:18;3.38;;;0.98;;
60060;SDS011;45933;51.336;12.612;2023-08-07T14:39:43;1.58;;;0.80;;
60060;SDS011;45933;51.336;12.612;2023-08-07T14:42:09;1.38;;;0.80;;
60060;SDS011;45933;51.336;12.612;2023-08-07T14:44:34;2.10;;;0.82;;
60060;SDS011;45933;51.336;12.612;2023-08-07T14:46:59;1.95;;;0.70;;